sensor_id;sensor_type;location;lat;lon;timestamp;P1;durP1;ratioP1;P2;durP2;ratioP2
5121;SDS011;2563;52.242;7.956;2024-01-06T00:00:17;12.27;;;4.30;;
5121;SDS011;2563;52.242;7.956;2024-01-06T00:02:43;12.40;;;5.37;;
5121;SDS011;2563;52.242;7.956;2024-01-06T00:05:08;12.67;;;4.70;;
5121;SDS011;2563;52.242;7.956;2024-01-06T00:07:33;12.73;;;4.80;;
5121;SDS011;2563;52.242;7.956;2024-01-06T00:09:59;12.17;;;5.07;;
5121;SDS011;2563;52.242;7.956;2024-01-06T00:12:24;13.60;;;5.93;;
5121;SDS011;2563;52.242;7.956;2024-01-06T00:14:49;15.13;;;5.47;;
5121;SDS011;2563;52.242;7.956;2024-01-06T00:17:15;14.90;;;5.77;;
5121;SDS011;2563;52.242;7.956;2024-01-06T00:19:41;13.70;;;5.53;;
5121;SDS011;2563;52.242;7.956;2024-01-06T00:22:06;13.13;;;5.23;;
5121;SDS011;2563;52.242;7.956;2024-01-06T00:24:31;12.30;;;5.03;;
5121;SDS011;2563;52.242;7.956;2024-01-06T00:26:57;15.53;;;6.30;;
5121;SDS011;2563;52.242;7.956;2024-01-06T00:29:22;15.37;;;6.10;;
5121;SDS011;2563;52.242;7.956;2024-01-06T00:31:47;17.20;;;5.67;;
5121;SDS011;2563;52.242;7.956;2024-01-06T00:34:13;13.00;;;5.10;;
5121;SDS011;2563;52.242;7.956;2024-01-06T00:36:38;11.53;;;5.27;;
5121;SDS011;2563;52.242;7.956;2024-01-06T00:39:03;12.03;;;5.13;;
5121;SDS011;2563;52.242;7.956;2024-01-06T00:41:29;11.90;;;4.83;;
5121;SDS011;2563;52.242;7.956;2024-01-06T00:43:55;14.13;;;5.37;;
5121;SDS011;2563;52.242;7.956;2024-01-06T00:46:20;11.80;;;5.03;;
5121;SDS011;2563;52.242;7.956;2024-01-06T00:48:46;11.30;;;4.53;;
5121;SDS011;2563;52.242;7.956;2024-01-06T00:51:11;12.17;;;4.20;;
5121;SDS011;2563;52.242;7.956;2024-01-06T00:53:36;10.57;;;4.03;;
5121;SDS011;2563;52.242;7.956;2024-01-06T00:56:02;11.80;;;4.30;;
5121;SDS011;2563;52.242;7.956;2024-01-06T00:58:27;12.03;;;4.13;;
5121;SDS011;2563;52.242;7.956;2024-01-06T01:00:53;11.87;;;3.67;;
5121;SDS011;2563;52.242;7.956;2024-01-06T01:03:18;9.53;;;3.50;;
5121;SDS011;2563;52.242;7.956;2024-01-06T01:05:43;9.13;;;3.50;;
5121;SDS011;2563;52.242;7.956;2024-01-06T01:08:09;9.97;;;3.80;;
5121;SDS011;2563;52.242;7.956;2024-01-06T01:10:34;9.57;;;3.30;;
5121;SDS011;2563;52.242;7.956;2024-01-06T01:13:00;8.80;;;3.63;;
5121;SDS011;2563;52.242;7.956;2024-01-06T01:15:25;12.00;;;4.13;;
5121;SDS011;2563;52.242;7.956;2024-01-06T01:17:50;15.57;;;4.10;;
5121;SDS011;2563;52.242;7.956;2024-01-06T01:20:16;9.90;;;4.23;;
5121;SDS011;2563;52.242;7.956;2024-01-06T01:22:41;8.93;;;3.13;;
5121;SDS011;2563;52.242;7.956;2024-01-06T01:25:07;8.73;;;3.33;;
5121;SDS011;2563;52.242;7.956;2024-01-06T01:27:35;7.97;;;3.10;;
5121;SDS011;2563;52.242;7.956;2024-01-06T01:30:01;9.07;;;3.53;;
5121;SDS011;2563;52.242;7.956;2024-01-06T01:32:26;7.30;;;2.60;;
5121;SDS011;2563;52.242;7.956;2024-01-06T01:34:51;8.30;;;2.90;;
5121;SDS011;2563;52.242;7.956;2024-01-06T01:37:17;9.23;;;3.50;;
5121;SDS011;2563;52.242;7.956;2024-01-06T01:39:42;7.00;;;2.53;;
5121;SDS011;2563;52.242;7.956;2024-01-06T01:42:08;9.60;;;2.53;;
5121;SDS011;2563;52.242;7.956;2024-01-06T01:44:34;8.00;;;2.83;;
5121;SDS011;2563;52.242;7.956;2024-01-06T01:46:59;6.17;;;1.87;;
5121;SDS011;2563;52.242;7.956;2024-01-06T01:49:25;7.97;;;2.00;;
5121;SDS011;2563;52.242;7.956;2024-01-06T01:51:51;7.00;;;2.37;;
5121;SDS011;2563;52.242;7.956;2024-01-06T01:54:17;5.93;;;2.00;;
5121;SDS011;2563;52.242;7.956;2024-01-06T01:56:42;6.90;;;2.60;;
5121;SDS011;2563;52.242;7.956;2024-01-06T01:59:12;7.20;;;2.40;;
5121;SDS011;2563;52.242;7.956;2024-01-06T02:01:39;5.80;;;2.17;;
5121;SDS011;2563;52.242;7.956;2024-01-06T02:04:05;5.53;;;1.97;;
5121;SDS011;2563;52.242;7.956;2024-01-06T02:06:30;6.47;;;1.90;;
5121;SDS011;2563;52.242;7.956;2024-01-06T02:08:56;6.60;;;2.60;;
5121;SDS011;2563;52.242;7.956;2024-01-06T02:11:21;6.90;;;2.60;;
5121;SDS011;2563;52.242;7.956;2024-01-06T02:13:47;6.63;;;2.53;;
5121;SDS011;2563;52.242;7.956;2024-01-06T02:16:12;5.73;;;2.30;;
5121;SDS011;2563;52.242;7.956;2024-01-06T02:18:37;6.53;;;2.50;;
5121;SDS011;2563;52.242;7.956;2024-01-06T02:21:03;7.10;;;2.93;;
5121;SDS011;2563;52.242;7.956;2024-01-06T02:23:29;6.53;;;2.63;;
5121;SDS011;2563;52.242;7.956;2024-01-06T02:25:55;9.23;;;3.03;;
5121;SDS011;2563;52.242;7.956;2024-01-06T02:28:20;7.43;;;2.90;;
5121;SDS011;2563;52.242;7.956;2024-01-06T02:30:46;10.03;;;3.43;;
5121;SDS011;2563;52.242;7.956;2024-01-06T02:33:11;8.20;;;3.13;;
5121;SDS011;2563;52.242;7.956;2024-01-06T02:35:37;8.70;;;3.70;;
5121;SDS011;2563;52.242;7.956;2024-01-06T02:38:02;12.90;;;4.47;;
5121;SDS011;2563;52.242;7.956;2024-01-06T02:40:28;10.67;;;4.50;;
5121;SDS011;2563;52.242;7.956;2024-01-06T02:42:53;14.00;;;4.33;;
5121;SDS011;2563;52.242;7.956;2024-01-06T02:45:19;10.80;;;4.23;;
5121;SDS011;2563;52.242;7.956;2024-01-06T02:47:44;11.43;;;4.60;;
5121;SDS011;2563;52.242;7.956;2024-01-06T02:50:10;10.80;;;4.50;;
5121;SDS011;2563;52.242;7.956;2024-01-06T02:52:35;15.47;;;4.63;;
5121;SDS011;2563;52.242;7.956;2024-01-06T02:55:01;9.90;;;4.33;;
5121;SDS011;2563;52.242;7.956;2024-01-06T02:57:29;9.13;;;3.70;;
5121;SDS011;2563;52.242;7.956;2024-01-06T02:59:55;11.57;;;4.27;;
5121;SDS011;2563;52.242;7.956;2024-01-06T03:02:21;13.23;;;3.90;;
5121;SDS011;2563;52.242;7.956;2024-01-06T03:06:42;9.40;;;3.90;;
5121;SDS011;2563;52.242;7.956;2024-01-06T03:09:07;10.73;;;3.60;;
5121;SDS011;2563;52.242;7.956;2024-01-06T03:11:33;8.67;;;3.20;;
5121;SDS011;2563;52.242;7.956;2024-01-06T03:13:58;9.73;;;3.93;;
5121;SDS011;2563;52.242;7.956;2024-01-06T03:16:23;12.60;;;4.27;;
5121;SDS011;2563;52.242;7.956;2024-01-06T03:18:49;11.17;;;4.23;;
5121;SDS011;2563;52.242;7.956;2024-01-06T03:21:18;8.27;;;3.70;;
5121;SDS011;2563;52.242;7.956;2024-01-06T03:23:44;11.33;;;4.10;;
5121;SDS011;2563;52.242;7.956;2024-01-06T03:26:10;10.97;;;3.60;;
5121;SDS011;2563;52.242;7.956;2024-01-06T03:28:35;9.77;;;4.30;;
5121;SDS011;2563;52.242;7.956;2024-01-06T03:31:00;12.03;;;4.93;;
5121;SDS011;2563;52.242;7.956;2024-01-06T03:33:26;11.90;;;4.43;;
5121;SDS011;2563;52.242;7.956;2024-01-06T03:35:51;11.57;;;3.73;;
5121;SDS011;2563;52.242;7.956;2024-01-06T03:38:16;13.10;;;4.43;;
5121;SDS011;2563;52.242;7.956;2024-01-06T03:40:42;9.60;;;3.87;;
5121;SDS011;2563;52.242;7.956;2024-01-06T03:43:07;13.10;;;4.83;;
5121;SDS011;2563;52.242;7.956;2024-01-06T03:45:32;9.07;;;3.20;;
5121;SDS011;2563;52.242;7.956;2024-01-06T03:47:58;9.03;;;3.63;;
5121;SDS011;2563;52.242;7.956;2024-01-06T03:50:23;9.80;;;3.57;;
5121;SDS011;2563;52.242;7.956;2024-01-06T03:52:48;9.83;;;3.90;;
5121;SDS011;2563;52.242;7.956;2024-01-06T03:55:14;9.17;;;3.30;;
5121;SDS011;2563;52.242;7.956;2024-01-06T03:57:40;10.57;;;3.83;;
5121;SDS011;2563;52.242;7.956;2024-01-06T04:00:06;11.67;;;4.23;;
5121;SDS011;2563;52.242;7.956;2024-01-06T04:02:32;11.43;;;4.43;;
5121;SDS011;2563;52.242;7.956;2024-01-06T04:04:58;11.73;;;4.37;;
5121;SDS011;2563;52.242;7.956;2024-01-06T04:07:23;10.03;;;3.93;;
5121;SDS011;2563;52.242;7.956;2024-01-06T04:09:48;10.23;;;3.37;;
5121;SDS011;2563;52.242;7.956;2024-01-06T04:12:14;9.13;;;3.17;;
5121;SDS011;2563;52.242;7.956;2024-01-06T04:14:39;9.97;;;3.43;;
5121;SDS011;2563;52.242;7.956;2024-01-06T04:17:04;8.90;;;3.20;;
5121;SDS011;2563;52.242;7.956;2024-01-06T04:19:30;16.23;;;3.40;;
5121;SDS011;2563;52.242;7.956;2024-01-06T04:21:55;9.07;;;2.70;;
5121;SDS011;2563;52.242;7.956;2024-01-06T04:24:20;8.47;;;3.20;;
5121;SDS011;2563;52.242;7.956;2024-01-06T04:26:46;7.70;;;3.23;;
5121;SDS011;2563;52.242;7.956;2024-01-06T04:29:11;7.57;;;2.60;;
5121;SDS011;2563;52.242;7.956;2024-01-06T04:31:40;6.70;;;2.00;;
5121;SDS011;2563;52.242;7.956;2024-01-06T04:34:06;8.57;;;2.90;;
5121;SDS011;2563;52.242;7.956;2024-01-06T04:36:31;8.43;;;2.67;;
5121;SDS011;2563;52.242;7.956;2024-01-06T04:38:56;7.70;;;2.77;;
5121;SDS011;2563;52.242;7.956;2024-01-06T04:41:22;6.63;;;2.27;;
5121;SDS011;2563;52.242;7.956;2024-01-06T04:43:47;8.27;;;2.90;;
5121;SDS011;2563;52.242;7.956;2024-01-06T04:46:12;6.53;;;2.33;;
5121;SDS011;2563;52.242;7.956;2024-01-06T04:48:40;7.30;;;2.80;;
5121;SDS011;2563;52.242;7.956;2024-01-06T04:51:06;9.70;;;3.00;;
5121;SDS011;2563;52.242;7.956;2024-01-06T04:53:35;8.10;;;3.00;;
5121;SDS011;2563;52.242;7.956;2024-01-06T04:56:00;8.73;;;3.33;;
5121;SDS011;2563;52.242;7.956;2024-01-06T04:58:26;8.40;;;2.93;;
5121;SDS011;2563;52.242;7.956;2024-01-06T05:00:51;8.87;;;3.17;;
5121;SDS011;2563;52.242;7.956;2024-01-06T05:03:17;7.13;;;2.57;;
5121;SDS011;2563;52.242;7.956;2024-01-06T05:05:43;8.77;;;2.87;;
5121;SDS011;2563;52.242;7.956;2024-01-06T05:08:08;7.87;;;2.83;;
5121;SDS011;2563;52.242;7.956;2024-01-06T05:10:33;9.10;;;3.10;;
5121;SDS011;2563;52.242;7.956;2024-01-06T05:12:59;8.80;;;3.73;;
5121;SDS011;2563;52.242;7.956;2024-01-06T05:15:24;9.73;;;2.80;;
5121;SDS011;2563;52.242;7.956;2024-01-06T05:17:50;10.90;;;4.00;;
5121;SDS011;2563;52.242;7.956;2024-01-06T05:20:15;11.33;;;3.73;;
5121;SDS011;2563;52.242;7.956;2024-01-06T05:22:40;9.20;;;3.30;;
5121;SDS011;2563;52.242;7.956;2024-01-06T05:25:06;9.90;;;3.67;;
5121;SDS011;2563;52.242;7.956;2024-01-06T05:27:31;11.67;;;4.07;;
5121;SDS011;2563;52.242;7.956;2024-01-06T05:29:56;8.30;;;3.30;;
5121;SDS011;2563;52.242;7.956;2024-01-06T05:32:22;11.07;;;3.83;;
5121;SDS011;2563;52.242;7.956;2024-01-06T05:34:48;9.80;;;3.50;;
5121;SDS011;2563;52.242;7.956;2024-01-06T05:37:14;11.00;;;3.07;;
5121;SDS011;2563;52.242;7.956;2024-01-06T05:39:39;11.07;;;3.67;;
5121;SDS011;2563;52.242;7.956;2024-01-06T05:42:05;7.67;;;2.97;;
5121;SDS011;2563;52.242;7.956;2024-01-06T05:44:31;9.00;;;3.30;;
5121;SDS011;2563;52.242;7.956;2024-01-06T05:46:57;8.90;;;2.80;;
5121;SDS011;2563;52.242;7.956;2024-01-06T05:49:22;8.00;;;2.70;;
5121;SDS011;2563;52.242;7.956;2024-01-06T05:51:48;7.53;;;2.60;;
5121;SDS011;2563;52.242;7.956;2024-01-06T05:54:14;9.93;;;3.23;;
5121;SDS011;2563;52.242;7.956;2024-01-06T05:56:39;9.47;;;2.77;;
5121;SDS011;2563;52.242;7.956;2024-01-06T05:59:04;8.10;;;3.10;;
5121;SDS011;2563;52.242;7.956;2024-01-06T06:01:30;9.33;;;2.93;;
5121;SDS011;2563;52.242;7.956;2024-01-06T06:03:55;8.30;;;3.17;;
5121;SDS011;2563;52.242;7.956;2024-01-06T06:06:20;8.60;;;2.87;;
5121;SDS011;2563;52.242;7.956;2024-01-06T06:08:46;9.90;;;3.73;;
5121;SDS011;2563;52.242;7.956;2024-01-06T06:11:13;9.20;;;3.20;;
5121;SDS011;2563;52.242;7.956;2024-01-06T06:13:39;10.60;;;3.60;;
5121;SDS011;2563;52.242;7.956;2024-01-06T06:16:06;10.20;;;3.70;;
5121;SDS011;2563;52.242;7.956;2024-01-06T06:18:31;9.03;;;3.40;;
5121;SDS011;2563;52.242;7.956;2024-01-06T06:20:58;10.00;;;4.00;;
5121;SDS011;2563;52.242;7.956;2024-01-06T06:23:23;11.10;;;3.97;;
5121;SDS011;2563;52.242;7.956;2024-01-06T06:25:49;9.27;;;3.70;;
5121;SDS011;2563;52.242;7.956;2024-01-06T06:28:14;10.50;;;3.63;;
5121;SDS011;2563;52.242;7.956;2024-01-06T06:30:39;13.30;;;4.17;;
5121;SDS011;2563;52.242;7.956;2024-01-06T06:33:05;13.47;;;4.33;;
5121;SDS011;2563;52.242;7.956;2024-01-06T06:35:30;10.20;;;3.63;;
5121;SDS011;2563;52.242;7.956;2024-01-06T06:37:56;9.37;;;3.30;;
5121;SDS011;2563;52.242;7.956;2024-01-06T06:40:21;10.50;;;3.27;;
5121;SDS011;2563;52.242;7.956;2024-01-06T06:42:46;10.80;;;3.77;;
5121;SDS011;2563;52.242;7.956;2024-01-06T06:45:12;11.90;;;3.63;;
5121;SDS011;2563;52.242;7.956;2024-01-06T06:47:38;9.50;;;3.77;;
5121;SDS011;2563;52.242;7.956;2024-01-06T06:50:03;11.87;;;4.10;;
5121;SDS011;2563;52.242;7.956;2024-01-06T06:52:29;10.97;;;4.40;;
5121;SDS011;2563;52.242;7.956;2024-01-06T06:54:54;12.03;;;4.27;;
5121;SDS011;2563;52.242;7.956;2024-01-06T06:57:20;12.70;;;5.10;;
5121;SDS011;2563;52.242;7.956;2024-01-06T06:59:45;11.83;;;3.90;;
5121;SDS011;2563;52.242;7.956;2024-01-06T07:02:10;9.97;;;4.07;;
5121;SDS011;2563;52.242;7.956;2024-01-06T07:04:36;12.07;;;4.67;;
5121;SDS011;2563;52.242;7.956;2024-01-06T07:07:01;11.00;;;3.63;;
5121;SDS011;2563;52.242;7.956;2024-01-06T07:09:27;9.03;;;3.20;;
5121;SDS011;2563;52.242;7.956;2024-01-06T07:11:52;9.90;;;3.30;;
5121;SDS011;2563;52.242;7.956;2024-01-06T07:14:18;9.63;;;3.80;;
5121;SDS011;2563;52.242;7.956;2024-01-06T07:16:43;7.90;;;3.10;;
5121;SDS011;2563;52.242;7.956;2024-01-06T07:19:08;9.20;;;3.30;;
5121;SDS011;2563;52.242;7.956;2024-01-06T07:21:34;7.50;;;2.63;;
5121;SDS011;2563;52.242;7.956;2024-01-06T07:23:59;7.67;;;2.63;;
5121;SDS011;2563;52.242;7.956;2024-01-06T07:26:26;8.30;;;2.93;;
5121;SDS011;2563;52.242;7.956;2024-01-06T07:28:51;9.50;;;3.20;;
5121;SDS011;2563;52.242;7.956;2024-01-06T07:31:17;6.40;;;2.80;;
5121;SDS011;2563;52.242;7.956;2024-01-06T07:33:42;8.20;;;3.33;;
5121;SDS011;2563;52.242;7.956;2024-01-06T07:36:08;8.23;;;3.43;;
5121;SDS011;2563;52.242;7.956;2024-01-06T07:38:33;8.57;;;3.20;;
5121;SDS011;2563;52.242;7.956;2024-01-06T07:40:58;9.13;;;3.90;;
5121;SDS011;2563;52.242;7.956;2024-01-06T07:43:24;7.40;;;2.60;;
5121;SDS011;2563;52.242;7.956;2024-01-06T07:45:49;8.37;;;3.10;;
5121;SDS011;2563;52.242;7.956;2024-01-06T07:48:16;8.00;;;3.00;;
5121;SDS011;2563;52.242;7.956;2024-01-06T07:50:41;13.60;;;3.57;;
5121;SDS011;2563;52.242;7.956;2024-01-06T07:53:06;8.60;;;3.27;;
5121;SDS011;2563;52.242;7.956;2024-01-06T07:55:32;10.30;;;3.63;;
5121;SDS011;2563;52.242;7.956;2024-01-06T07:57:57;7.90;;;2.53;;
5121;SDS011;2563;52.242;7.956;2024-01-06T08:00:22;9.63;;;3.10;;
5121;SDS011;2563;52.242;7.956;2024-01-06T08:02:48;6.20;;;2.33;;
5121;SDS011;2563;52.242;7.956;2024-01-06T08:05:13;7.70;;;2.60;;
5121;SDS011;2563;52.242;7.956;2024-01-06T08:07:39;6.93;;;2.50;;
5121;SDS011;2563;52.242;7.956;2024-01-06T08:10:05;5.67;;;2.37;;
5121;SDS011;2563;52.242;7.956;2024-01-06T08:12:31;7.53;;;2.87;;
5121;SDS011;2563;52.242;7.956;2024-01-06T08:14:56;6.70;;;2.60;;
5121;SDS011;2563;52.242;7.956;2024-01-06T08:17:21;8.87;;;2.97;;
5121;SDS011;2563;52.242;7.956;2024-01-06T08:19:47;7.77;;;3.00;;
5121;SDS011;2563;52.242;7.956;2024-01-06T08:22:12;7.10;;;2.20;;
5121;SDS011;2563;52.242;7.956;2024-01-06T08:24:38;7.73;;;2.53;;
5121;SDS011;2563;52.242;7.956;2024-01-06T08:27:03;8.10;;;2.27;;
5121;SDS011;2563;52.242;7.956;2024-01-06T08:29:30;5.80;;;2.20;;
5121;SDS011;2563;52.242;7.956;2024-01-06T08:31:55;12.97;;;2.70;;
5121;SDS011;2563;52.242;7.956;2024-01-06T08:34:21;8.97;;;3.00;;
5121;SDS011;2563;52.242;7.956;2024-01-06T08:36:46;6.17;;;2.30;;
5121;SDS011;2563;52.242;7.956;2024-01-06T08:39:12;7.07;;;2.37;;
5121;SDS011;2563;52.242;7.956;2024-01-06T08:41:37;8.10;;;2.53;;
5121;SDS011;2563;52.242;7.956;2024-01-06T08:44:03;10.67;;;2.93;;
5121;SDS011;2563;52.242;7.956;2024-01-06T08:46:29;9.90;;;3.10;;
5121;SDS011;2563;52.242;7.956;2024-01-06T08:48:55;9.53;;;3.57;;
5121;SDS011;2563;52.242;7.956;2024-01-06T08:51:21;9.40;;;3.40;;
5121;SDS011;2563;52.242;7.956;2024-01-06T08:53:46;8.37;;;3.33;;
5121;SDS011;2563;52.242;7.956;2024-01-06T08:56:12;9.33;;;3.20;;
5121;SDS011;2563;52.242;7.956;2024-01-06T08:58:37;8.93;;;3.10;;
5121;SDS011;2563;52.242;7.956;2024-01-06T09:01:02;10.63;;;3.53;;
5121;SDS011;2563;52.242;7.956;2024-01-06T09:03:28;8.87;;;3.37;;
5121;SDS011;2563;52.242;7.956;2024-01-06T09:05:55;11.63;;;5.07;;
5121;SDS011;2563;52.242;7.956;2024-01-06T09:08:21;9.20;;;3.47;;
5121;SDS011;2563;52.242;7.956;2024-01-06T09:10:47;10.80;;;4.70;;
5121;SDS011;2563;52.242;7.956;2024-01-06T09:13:15;12.87;;;4.50;;
5121;SDS011;2563;52.242;7.956;2024-01-06T09:15:41;11.20;;;4.03;;
5121;SDS011;2563;52.242;7.956;2024-01-06T09:18:06;12.80;;;5.13;;
5121;SDS011;2563;52.242;7.956;2024-01-06T09:20:31;11.57;;;4.40;;
5121;SDS011;2563;52.242;7.956;2024-01-06T09:22:57;11.00;;;4.53;;
5121;SDS011;2563;52.242;7.956;2024-01-06T09:25:22;13.60;;;4.83;;
5121;SDS011;2563;52.242;7.956;2024-01-06T09:27:49;15.30;;;4.43;;
5121;SDS011;2563;52.242;7.956;2024-01-06T09:30:16;10.87;;;4.70;;
5121;SDS011;2563;52.242;7.956;2024-01-06T09:32:41;9.53;;;4.00;;
5121;SDS011;2563;52.242;7.956;2024-01-06T09:35:07;14.07;;;5.10;;
5121;SDS011;2563;52.242;7.956;2024-01-06T09:37:32;12.53;;;5.50;;
5121;SDS011;2563;52.242;7.956;2024-01-06T09:39:57;11.80;;;4.43;;
5121;SDS011;2563;52.242;7.956;2024-01-06T09:42:24;10.27;;;3.97;;
5121;SDS011;2563;52.242;7.956;2024-01-06T09:44:49;11.83;;;4.43;;
5121;SDS011;2563;52.242;7.956;2024-01-06T09:47:14;9.60;;;4.17;;
5121;SDS011;2563;52.242;7.956;2024-01-06T09:49:46;11.57;;;4.50;;
5121;SDS011;2563;52.242;7.956;2024-01-06T09:52:14;11.00;;;4.63;;
5121;SDS011;2563;52.242;7.956;2024-01-06T09:54:46;9.63;;;4.13;;
5121;SDS011;2563;52.242;7.956;2024-01-06T09:57:15;9.20;;;3.80;;
5121;SDS011;2563;52.242;7.956;2024-01-06T09:59:41;10.90;;;3.70;;
5121;SDS011;2563;52.242;7.956;2024-01-06T10:02:09;11.00;;;3.50;;
5121;SDS011;2563;52.242;7.956;2024-01-06T10:04:39;8.40;;;3.50;;
5121;SDS011;2563;52.242;7.956;2024-01-06T10:07:04;9.00;;;3.77;;
5121;SDS011;2563;52.242;7.956;2024-01-06T10:09:30;9.50;;;3.73;;
5121;SDS011;2563;52.242;7.956;2024-01-06T10:11:55;8.07;;;3.03;;
5121;SDS011;2563;52.242;7.956;2024-01-06T10:14:24;10.20;;;3.87;;
5121;SDS011;2563;52.242;7.956;2024-01-06T10:16:53;10.13;;;3.83;;
5121;SDS011;2563;52.242;7.956;2024-01-06T10:19:19;11.40;;;3.87;;
5121;SDS011;2563;52.242;7.956;2024-01-06T10:21:44;8.90;;;3.77;;
5121;SDS011;2563;52.242;7.956;2024-01-06T10:24:10;11.10;;;4.60;;
5121;SDS011;2563;52.242;7.956;2024-01-06T10:26:35;9.27;;;3.40;;
5121;SDS011;2563;52.242;7.956;2024-01-06T10:29:01;9.57;;;4.03;;
5121;SDS011;2563;52.242;7.956;2024-01-06T10:31:27;8.83;;;3.40;;
5121;SDS011;2563;52.242;7.956;2024-01-06T10:33:52;9.37;;;3.60;;
5121;SDS011;2563;52.242;7.956;2024-01-06T10:36:19;8.83;;;3.53;;
5121;SDS011;2563;52.242;7.956;2024-01-06T10:38:44;7.70;;;3.07;;
5121;SDS011;2563;52.242;7.956;2024-01-06T10:41:10;8.57;;;3.03;;
5121;SDS011;2563;52.242;7.956;2024-01-06T10:43:37;8.90;;;3.03;;
5121;SDS011;2563;52.242;7.956;2024-01-06T10:46:05;8.77;;;3.17;;
5121;SDS011;2563;52.242;7.956;2024-01-06T10:48:35;9.50;;;3.53;;
5121;SDS011;2563;52.242;7.956;2024-01-06T10:51:03;7.83;;;2.87;;
5121;SDS011;2563;52.242;7.956;2024-01-06T10:53:32;7.00;;;2.90;;
5121;SDS011;2563;52.242;7.956;2024-01-06T10:55:58;7.90;;;2.40;;
5121;SDS011;2563;52.242;7.956;2024-01-06T10:58:24;8.67;;;3.53;;
5121;SDS011;2563;52.242;7.956;2024-01-06T11:00:50;7.73;;;2.83;;
5121;SDS011;2563;52.242;7.956;2024-01-06T11:03:16;8.60;;;3.47;;
5121;SDS011;2563;52.242;7.956;2024-01-06T11:05:42;7.00;;;2.53;;
5121;SDS011;2563;52.242;7.956;2024-01-06T11:08:08;7.50;;;2.50;;
5121;SDS011;2563;52.242;7.956;2024-01-06T11:10:36;8.20;;;2.90;;
5121;SDS011;2563;52.242;7.956;2024-01-06T11:13:07;8.27;;;3.20;;
5121;SDS011;2563;52.242;7.956;2024-01-06T11:18:33;8.23;;;3.20;;
5121;SDS011;2563;52.242;7.956;2024-01-06T11:26:39;8.00;;;3.13;;
5121;SDS011;2563;52.242;7.956;2024-01-06T11:29:07;10.27;;;3.50;;
5121;SDS011;2563;52.242;7.956;2024-01-06T11:31:33;9.13;;;3.30;;
5121;SDS011;2563;52.242;7.956;2024-01-06T11:34:19;7.70;;;3.20;;
5121;SDS011;2563;52.242;7.956;2024-01-06T11:36:46;9.50;;;3.60;;
5121;SDS011;2563;52.242;7.956;2024-01-06T11:42:01;9.90;;;3.87;;
5121;SDS011;2563;52.242;7.956;2024-01-06T11:44:27;9.53;;;3.70;;
5121;SDS011;2563;52.242;7.956;2024-01-06T11:46:55;8.63;;;3.87;;
5121;SDS011;2563;52.242;7.956;2024-01-06T11:49:21;14.90;;;6.60;;
5121;SDS011;2563;52.242;7.956;2024-01-06T11:51:51;10.27;;;4.67;;
5121;SDS011;2563;52.242;7.956;2024-01-06T11:54:16;16.33;;;5.83;;
5121;SDS011;2563;52.242;7.956;2024-01-06T11:56:42;11.17;;;4.67;;
5121;SDS011;2563;52.242;7.956;2024-01-06T11:59:07;10.90;;;4.57;;
5121;SDS011;2563;52.242;7.956;2024-01-06T12:01:36;11.13;;;4.53;;
5121;SDS011;2563;52.242;7.956;2024-01-06T12:04:02;8.70;;;3.73;;
5121;SDS011;2563;52.242;7.956;2024-01-06T12:06:30;13.47;;;5.13;;
5121;SDS011;2563;52.242;7.956;2024-01-06T12:09:05;13.33;;;4.93;;
5121;SDS011;2563;52.242;7.956;2024-01-06T12:11:41;12.23;;;5.00;;
5121;SDS011;2563;52.242;7.956;2024-01-06T12:14:10;10.40;;;4.27;;
5121;SDS011;2563;52.242;7.956;2024-01-06T12:16:36;10.20;;;4.17;;
5121;SDS011;2563;52.242;7.956;2024-01-06T12:19:01;10.97;;;4.40;;
5121;SDS011;2563;52.242;7.956;2024-01-06T12:21:28;13.60;;;4.70;;
5121;SDS011;2563;52.242;7.956;2024-01-06T12:23:54;9.30;;;4.23;;
5121;SDS011;2563;52.242;7.956;2024-01-06T12:26:19;12.17;;;5.07;;
5121;SDS011;2563;52.242;7.956;2024-01-06T12:28:45;12.07;;;4.63;;
5121;SDS011;2563;52.242;7.956;2024-01-06T12:31:11;11.00;;;4.50;;
5121;SDS011;2563;52.242;7.956;2024-01-06T12:33:39;12.20;;;5.03;;
5121;SDS011;2563;52.242;7.956;2024-01-06T12:36:08;12.23;;;5.03;;
5121;SDS011;2563;52.242;7.956;2024-01-06T12:38:34;10.30;;;4.37;;
5121;SDS011;2563;52.242;7.956;2024-01-06T12:41:00;8.57;;;3.57;;
5121;SDS011;2563;52.242;7.956;2024-01-06T12:43:25;9.23;;;4.30;;
5121;SDS011;2563;52.242;7.956;2024-01-06T12:45:51;10.67;;;4.10;;
5121;SDS011;2563;52.242;7.956;2024-01-06T12:48:17;10.47;;;4.33;;
5121;SDS011;2563;52.242;7.956;2024-01-06T12:50:43;8.90;;;3.60;;
5121;SDS011;2563;52.242;7.956;2024-01-06T12:53:09;9.43;;;4.53;;
5121;SDS011;2563;52.242;7.956;2024-01-06T12:55:34;12.20;;;4.37;;
5121;SDS011;2563;52.242;7.956;2024-01-06T12:58:00;10.20;;;3.30;;
5121;SDS011;2563;52.242;7.956;2024-01-06T13:00:28;8.77;;;3.20;;
5121;SDS011;2563;52.242;7.956;2024-01-06T13:02:54;6.80;;;2.77;;
5121;SDS011;2563;52.242;7.956;2024-01-06T13:05:19;10.87;;;3.80;;
5121;SDS011;2563;52.242;7.956;2024-01-06T13:07:45;9.27;;;4.90;;
5121;SDS011;2563;52.242;7.956;2024-01-06T13:10:10;8.20;;;3.47;;
5121;SDS011;2563;52.242;7.956;2024-01-06T13:12:36;8.57;;;3.70;;
5121;SDS011;2563;52.242;7.956;2024-01-06T13:15:01;8.47;;;3.30;;
5121;SDS011;2563;52.242;7.956;2024-01-06T13:17:27;11.10;;;4.10;;
5121;SDS011;2563;52.242;7.956;2024-01-06T13:19:52;6.20;;;2.87;;
5121;SDS011;2563;52.242;7.956;2024-01-06T13:22:17;8.50;;;3.40;;
5121;SDS011;2563;52.242;7.956;2024-01-06T13:24:45;8.93;;;3.80;;
5121;SDS011;2563;52.242;7.956;2024-01-06T13:27:11;10.17;;;3.67;;
5121;SDS011;2563;52.242;7.956;2024-01-06T13:29:36;9.77;;;3.83;;
5121;SDS011;2563;52.242;7.956;2024-01-06T13:32:02;8.60;;;3.60;;
5121;SDS011;2563;52.242;7.956;2024-01-06T13:34:27;10.20;;;3.60;;
5121;SDS011;2563;52.242;7.956;2024-01-06T13:36:54;9.10;;;3.83;;
5121;SDS011;2563;52.242;7.956;2024-01-06T13:39:20;7.80;;;2.90;;
5121;SDS011;2563;52.242;7.956;2024-01-06T13:41:46;8.00;;;2.77;;
5121;SDS011;2563;52.242;7.956;2024-01-06T13:44:12;8.83;;;2.87;;
5121;SDS011;2563;52.242;7.956;2024-01-06T13:46:38;8.73;;;2.97;;
5121;SDS011;2563;52.242;7.956;2024-01-06T13:49:06;9.13;;;3.40;;
5121;SDS011;2563;52.242;7.956;2024-01-06T13:51:31;8.63;;;3.70;;
5121;SDS011;2563;52.242;7.956;2024-01-06T13:53:57;7.30;;;3.20;;
5121;SDS011;2563;52.242;7.956;2024-01-06T13:56:23;7.20;;;3.10;;
5121;SDS011;2563;52.242;7.956;2024-01-06T13:58:48;7.00;;;2.90;;
5121;SDS011;2563;52.242;7.956;2024-01-06T14:01:13;11.70;;;4.90;;
5121;SDS011;2563;52.242;7.956;2024-01-06T14:03:39;11.23;;;4.90;;
5121;SDS011;2563;52.242;7.956;2024-01-06T14:06:04;12.03;;;4.50;;
5121;SDS011;2563;52.242;7.956;2024-01-06T14:08:31;14.53;;;5.50;;
5121;SDS011;2563;52.242;7.956;2024-01-06T14:10:56;9.30;;;4.30;;
5121;SDS011;2563;52.242;7.956;2024-01-06T14:13:22;11.40;;;3.50;;
5121;SDS011;2563;52.242;7.956;2024-01-06T14:15:47;9.13;;;4.20;;
5121;SDS011;2563;52.242;7.956;2024-01-06T14:18:13;11.03;;;4.10;;
5121;SDS011;2563;52.242;7.956;2024-01-06T14:20:41;10.20;;;4.60;;
5121;SDS011;2563;52.242;7.956;2024-01-06T14:23:06;13.47;;;3.93;;
5121;SDS011;2563;52.242;7.956;2024-01-06T14:25:31;10.80;;;4.17;;
5121;SDS011;2563;52.242;7.956;2024-01-06T14:27:57;10.70;;;4.70;;
5121;SDS011;2563;52.242;7.956;2024-01-06T14:30:22;10.53;;;4.57;;
5121;SDS011;2563;52.242;7.956;2024-01-06T14:32:47;10.03;;;3.97;;
5121;SDS011;2563;52.242;7.956;2024-01-06T14:35:13;8.30;;;3.80;;
5121;SDS011;2563;52.242;7.956;2024-01-06T14:37:39;9.87;;;3.93;;
5121;SDS011;2563;52.242;7.956;2024-01-06T14:40:06;10.63;;;3.97;;
5121;SDS011;2563;52.242;7.956;2024-01-06T14:42:32;10.77;;;4.00;;
5121;SDS011;2563;52.242;7.956;2024-01-06T14:44:58;9.40;;;3.60;;
5121;SDS011;2563;52.242;7.956;2024-01-06T14:47:24;9.53;;;3.80;;
5121;SDS011;2563;52.242;7.956;2024-01-06T14:49:49;9.40;;;3.93;;
5121;SDS011;2563;52.242;7.956;2024-01-06T14:52:14;7.93;;;3.60;;
5121;SDS011;2563;52.242;7.956;2024-01-06T14:54:39;10.53;;;4.07;;
5121;SDS011;2563;52.242;7.956;2024-01-06T14:57:05;12.27;;;4.53;;
5121;SDS011;2563;52.242;7.956;2024-01-06T14:59:30;9.13;;;3.93;;
5121;SDS011;2563;52.242;7.956;2024-01-06T15:01:56;10.23;;;3.80;;
5121;SDS011;2563;52.242;7.956;2024-01-06T15:04:22;14.70;;;4.80;;
5121;SDS011;2563;52.242;7.956;2024-01-06T15:06:47;10.33;;;4.27;;
5121;SDS011;2563;52.242;7.956;2024-01-06T15:09:14;14.00;;;5.50;;
5121;SDS011;2563;52.242;7.956;2024-01-06T15:11:39;9.70;;;4.30;;
5121;SDS011;2563;52.242;7.956;2024-01-06T15:14:04;17.30;;;7.50;;